Time;durP1;ratioP1;P1;durP2;ratioP2;P2;SDS_P1;SDS_P2;PMS_P1;PMS_P2;Temp;Humidity;BMP_temperature;BMP_pressure;BME280_temperature;BME280_humidity;BME280_pressure;Samples;Min_cycle;Max_cycle;Signal;HPM_P1;HPM_P2
2021/06/01 00:00:39;;;;;;;21.75;15.32;;;;;;;14.23;69.91;100639.36;1739640;82;21672;-59
2021/06/01 00:03:15;;;;;;;20.55;15.80;;;;;;;14.20;69.98;100645.75;1741107;82;21176;-59
2021/06/01 00:05:48;;;;;;;20.27;15.23;;;;;;;14.17;70.12;100649.51;1739660;82;21322;-59
2021/06/01 00:08:24;;;;;;;23.90;16.10;;;;;;;14.16;70.06;100649.67;1740080;82;21263;-59
2021/06/01 00:10:58;;;;;;;22.35;15.93;;;;;;;14.13;70.13;100654.75;1741419;82;21763;-59
2021/06/01 00:13:31;;;;;;;24.33;15.23;;;;;;;14.11;70.22;100647.45;1741056;82;21244;-59
2021/06/01 00:16:05;;;;;;;27.22;14.95;;;;;;;14.11;70.23;100654.04;1740239;82;21212;-57
2021/06/01 00:18:39;;;;;;;24.25;14.87;;;;;;;14.10;70.29;100655.52;1740954;82;21260;-57
2021/06/01 00:21:12;;;;;;;21.12;14.95;;;;;;;14.11;70.31;100654.55;1741265;82;21264;-57
2021/06/01 00:23:45;;;;;;;20.37;14.93;;;;;;;14.10;70.34;100654.20;1741325;82;21252;-57
2021/06/01 00:26:18;;;;;;;19.55;14.35;;;;;;;14.12;70.33;100654.88;1740323;82;21319;-57
2021/06/01 00:28:51;;;;;;;21.75;14.60;;;;;;;14.11;70.31;100654.55;1741261;82;21288;-57
2021/06/01 00:31:25;;;;;;;21.40;14.00;;;;;;;14.11;70.36;100657.98;1744678;81;21319;-57
2021/06/01 00:33:57;;;;;;;21.13;13.60;;;;;;;14.15;70.42;100660.69;1746950;82;21145;-57
2021/06/01 00:36:31;;;;;;;19.57;14.18;;;;;;;14.19;70.43;100661.20;1709746;83;21311;-57
2021/06/01 00:39:06;;;;;;;25.77;14.05;;;;;;;14.22;70.39;100653.49;1699316;84;21221;-59
2021/06/01 00:41:40;;;;;;;19.27;14.00;;;;;;;14.26;70.31;100661.45;1725809;82;21188;-59
2021/06/01 00:44:13;;;;;;;17.82;13.45;;;;;;;14.27;70.09;100659.98;1746739;82;21255;-59
2021/06/01 00:46:46;;;;;;;21.95;13.05;;;;;;;14.30;70.06;100658.85;1745381;81;21275;-59
2021/06/01 00:49:20;;;;;;;22.20;12.35;;;;;;;14.30;69.92;100655.77;1747519;81;21243;-59
2021/06/01 00:51:55;;;;;;;16.45;11.80;;;;;;;14.31;69.85;100657.41;1746611;82;21802;-59
2021/06/01 00:54:29;;;;;;;15.00;10.75;;;;;;;14.31;69.66;100650.82;1747105;81;21171;-59
2021/06/01 00:57:02;;;;;;;;;;;;;;;14.28;69.42;100653.71;1749270;81;21255;-59
2021/06/01 00:59:35;;;;;;;16.77;12.33;;;;;;;14.19;69.54;100646.23;1746762;81;20264;-59
2021/06/01 01:02:09;;;;;;;17.77;12.07;;;;;;;14.10;69.70;100640.55;1746805;82;21169;-58
2021/06/01 01:04:43;;;;;;;18.15;11.57;;;;;;;14.04;69.78;100641.13;1746375;82;21141;-58
2021/06/01 01:07:35;;;;;;;18.00;10.73;;;;;;;13.99;69.90;100639.94;1746979;82;21280;-59
2021/06/01 01:09:59;;;;;;;14.85;11.12;;;;;;;13.95;70.00;100642.03;1768273;80;21268;-58
2021/06/01 01:12:46;;;;;;;16.70;10.68;;;;;;;13.92;70.06;100637.56;1769293;81;21273;-59
2021/06/01 01:15:25;;;;;;;15.32;9.85;;;;;;;13.89;70.12;100638.69;1769711;80;21299;-59
2021/06/01 01:17:59;;;;;;;12.90;9.68;;;;;;;13.84;70.22;100640.09;1763457;81;21141;-59
2021/06/01 01:20:47;;;;;;;14.60;9.85;;;;;;;13.81;70.36;100637.75;1745577;81;21259;-59
2021/06/01 01:23:20;;;;;;;11.55;9.50;;;;;;;13.78;70.33;100636.24;1739736;81;21355;-59
2021/06/01 01:26:14;;;;;;;12.13;8.80;;;;;;;13.76;70.46;100636.05;1729477;83;21708;-59
2021/06/01 01:29:06;;;;;;;13.85;9.45;;;;;;;13.76;70.47;100632.09;1718491;79;21156;-59
2021/06/01 01:31:56;;;;;;;10.82;8.08;;;;;;;13.75;70.49;100639.67;1770160;80;21265;-58
2021/06/01 01:34:29;;;;;;;11.70;8.23;;;;;;;13.79;70.60;100647.12;1735118;80;21283;-59
2021/06/01 01:37:02;;;;;;;13.30;8.45;;;;;;;13.83;70.57;100640.58;1729495;82;21248;-58
2021/06/01 01:39:41;;;;;;;13.60;7.37;;;;;;;13.85;70.47;100639.94;1729078;81;21209;-59
2021/06/01 01:42:12;;;;;;;13.08;7.35;;;;;;;13.87;70.46;100631.91;1728170;83;21359;-60
2021/06/01 01:44:51;;;;;;;9.18;6.85;;;;;;;13.89;70.34;100635.22;1707467;83;21339;-59
2021/06/01 01:50:14;;;;;;;10.25;6.03;;;;;;;13.89;70.08;100631.27;1729310;83;21149;-58
2021/06/01 01:52:47;;;;;;;8.90;5.83;;;;;;;13.87;70.20;100637.17;1730505;83;21307;-59
2021/06/01 01:55:22;;;;;;;8.15;5.30;;;;;;;13.86;70.14;100641.61;1730897;83;21117;-59
2021/06/01 01:57:55;;;;;;;;;;;;;;;13.84;70.15;100642.25;1731916;83;21264;-59
2021/06/01 02:00:29;;;;;;;6.47;5.05;;;;;;;13.82;70.18;100644.20;1730974;83;20209;-59
2021/06/01 02:03:02;;;;;;;8.63;5.65;;;;;;;13.79;70.26;100639.22;1710456;83;21539;-58
2021/06/01 02:05:37;;;;;;;6.42;5.15;;;;;;;13.80;70.24;100638.75;1730685;83;21240;-59
2021/06/01 02:08:12;;;;;;;9.08;5.40;;;;;;;13.78;70.25;100636.24;1729820;82;21288;-59
2021/06/01 02:10:45;;;;;;;8.13;4.83;;;;;;;13.78;70.30;100632.30;1730751;83;21701;-59
2021/06/01 02:13:18;;;;;;;9.23;4.87;;;;;;;13.82;70.28;100631.05;1730982;83;21244;-59
2021/06/01 02:15:51;;;;;;;7.92;4.53;;;;;;;13.86;70.34;100638.14;1731033;83;21263;-59
2021/06/01 02:18:24;;;;;;;5.20;4.08;;;;;;;13.88;70.21;100638.81;1731033;83;21260;-60
2021/06/01 02:20:59;;;;;;;6.90;4.50;;;;;;;13.87;70.16;100635.38;1731031;83;21288;-59
2021/06/01 02:23:48;;;;;;;6.37;4.60;;;;;;;13.90;70.06;100636.89;1730543;82;21252;-59
2021/06/01 02:26:38;;;;;;;7.03;3.87;;;;;;;13.90;70.04;100629.00;1729298;83;21264;-60
2021/06/01 02:29:15;;;;;;;6.05;3.50;;;;;;;13.97;70.09;100620.84;1730166;83;21323;-59
2021/06/01 02:31:48;;;;;;;4.80;3.47;;;;;;;14.11;69.91;100626.91;1730866;83;21311;-58
2021/06/01 02:34:21;;;;;;;5.80;3.83;;;;;;;14.30;69.66;100624.16;1696917;84;21190;-60
2021/06/01 02:36:55;;;;;;;5.42;3.90;;;;;;;14.49;69.03;100616.58;1696684;84;21178;-59
2021/06/01 02:39:30;;;;;;;6.53;3.03;;;;;;;14.68;68.59;100622.98;1697080;84;21320;-59
2021/06/01 02:42:06;;;;;;;3.60;3.00;;;;;;;14.85;67.64;100615.02;1696972;84;21248;-59
2021/06/01 02:44:39;;;;;;;4.50;2.98;;;;;;;14.98;66.91;100615.94;1696169;84;21823;-59
2021/06/01 02:47:12;;;;;;;5.63;2.60;;;;;;;15.10;66.42;100617.81;1696861;84;21292;-62
2021/06/01 02:49:45;;;;;;;7.00;2.87;;;;;;;15.25;66.15;100609.18;1696718;84;21601;-59
2021/06/01 02:52:18;;;;;;;4.60;2.40;;;;;;;15.38;65.14;100609.56;1697333;84;21586;-61
2021/06/01 02:54:52;;;;;;;3.25;2.60;;;;;;;15.47;64.82;100598.59;1696554;84;21224;-59
2021/06/01 02:57:26;;;;;;;5.08;2.58;;;;;;;15.61;64.47;100598.47;1695597;84;21177;-60
2021/06/01 02:59:59;;;;;;;2.25;1.82;;;;;;;15.64;64.06;100598.99;1696481;84;21209;-62
2021/06/01 03:02:32;;;;;;;2.72;1.87;;;;;;;15.62;63.63;100599.63;1697203;84;21264;-60
2021/06/01 03:05:08;;;;;;;2.40;2.10;;;;;;;15.62;63.59;100596.18;1696195;84;21288;-59
2021/06/01 03:07:45;;;;;;;3.40;3.02;;;;;;;15.58;63.62;100604.06;1696338;84;21296;-59
2021/06/01 03:10:20;;;;;;;2.77;1.90;;;;;;;15.51;63.60;100603.88;1695120;84;21770;-59
2021/06/01 03:12:59;;;;;;;6.15;1.75;;;;;;;15.40;63.55;100604.14;1696876;84;21305;-59
2021/06/01 03:15:31;;;;;;;2.30;2.00;;;;;;;15.29;63.60;100599.96;1696141;84;21193;-59
2021/06/01 03:18:05;;;;;;;3.65;2.00;;;;;;;15.16;63.80;100599.58;1677120;84;21194;-59
2021/06/01 03:20:38;;;;;;;2.40;1.98;;;;;;;15.05;64.17;100598.52;1696384;84;21284;-58
2021/06/01 03:23:12;;;;;;;2.45;1.65;;;;;;;15.01;64.49;100597.66;1696785;84;21297;-59
2021/06/01 03:25:44;;;;;;;2.65;1.70;;;;;;;15.05;64.53;100603.79;1696217;84;21182;-59
2021/06/01 03:28:19;;;;;;;7.07;1.53;;;;;;;15.23;64.03;100599.77;1696613;84;21312;-59
2021/06/01 03:30:52;;;;;;;2.42;1.40;;;;;;;15.53;63.67;100594.47;1696126;84;21512;-59
2021/06/01 03:33:25;;;;;;;2.67;1.40;;;;;;;15.94;62.85;100597.57;1701990;82;21331;-59
2021/06/01 03:35:58;;;;;;;2.80;1.42;;;;;;;16.34;61.28;100584.41;1730068;82;21320;-59
2021/06/01 03:38:36;;;;;;;2.98;1.55;;;;;;;16.73;59.43;100580.13;1740804;81;22033;-60
2021/06/01 03:41:09;;;;;;;2.12;1.67;;;;;;;17.17;58.36;100576.53;1765326;80;21251;-60
2021/06/01 03:43:42;;;;;;;3.17;1.63;;;;;;;17.53;56.50;100580.08;1766053;80;21111;-59
2021/06/01 03:46:16;;;;;;;3.83;1.40;;;;;;;17.50;56.05;100579.37;1770364;80;21957;-59
2021/06/01 03:48:49;;;;;;;3.45;1.70;;;;;;;17.39;56.40;100576.28;1769965;80;21347;-59
2021/06/01 03:51:22;;;;;;;3.83;1.55;;;;;;;17.37;56.62;100589.70;1769666;80;21217;-60
2021/06/01 03:53:55;;;;;;;2.58;1.50;;;;;;;17.29;55.99;100599.50;1771315;80;21142;-60
2021/06/01 03:56:28;;;;;;;4.20;1.50;;;;;;;17.15;56.49;100602.83;1770719;79;21279;-60
2021/06/01 03:59:01;;;;;;;6.33;1.30;;;;;;;17.16;57.17;100605.81;1770485;80;21288;-61
2021/06/01 04:01:35;;;;;;;4.08;1.50;;;;;;;17.24;57.10;100605.80;1769662;80;21304;-57
2021/06/01 04:04:08;;;;;;;;;;;;;;;17.48;56.74;100606.52;1760114;80;21556;-59
2021/06/01 04:06:40;;;;;;;2.72;1.37;;;;;;;17.80;55.61;100605.58;1765329;80;20311;-59
2021/06/01 04:09:13;;;;;;;;;;;;;;;18.13;54.45;100608.84;1769392;80;21177;-58
2021/06/01 04:11:46;;;;;;;7.65;2.47;;;;;;;18.58;53.25;100608.85;1767941;80;20225;-58
2021/06/01 04:14:19;;;;;;;1.47;1.30;;;;;;;19.01;52.60;100608.61;1769655;80;21293;-59
2021/06/01 04:16:52;;;;;;;2.45;1.10;;;;;;;19.37;51.53;100604.75;1767147;79;21206;-59
2021/06/01 04:19:25;;;;;;;2.20;1.17;;;;;;;19.40;50.22;100605.22;1748294;80;21249;-59
2021/06/01 04:21:58;;;;;;;3.72;1.37;;;;;;;19.18;50.14;100595.48;1767382;80;21280;-60
2021/06/01 04:24:32;;;;;;;14.58;1.87;;;;;;;18.98;50.60;100589.59;1765184;81;21275;-60
2021/06/01 04:27:06;;;;;;;3.65;1.80;;;;;;;18.88;51.24;100582.39;1747291;81;21364;-60
2021/06/01 04:29:39;;;;;;;4.85;1.60;;;;;;;18.80;51.40;100580.64;1768883;80;21842;-59
2021/06/01 04:32:12;;;;;;;3.98;1.92;;;;;;;18.69;51.24;100578.44;1765281;80;21341;-59
2021/06/01 04:34:46;;;;;;;2.37;1.15;;;;;;;18.53;51.31;100570.64;1749610;81;21188;-59
2021/06/01 04:37:21;;;;;;;1.27;1.10;;;;;;;18.59;51.47;100568.58;1761031;81;21268;-58
2021/06/01 04:39:56;;;;;;;4.08;1.60;;;;;;;18.96;51.48;100575.19;1760525;81;21248;-59
2021/06/01 04:42:29;;;;;;;9.35;1.92;;;;;;;19.59;50.38;100580.41;1754533;81;21212;-60
2021/06/01 04:45:02;;;;;;;7.65;1.25;;;;;;;20.12;48.73;100572.84;1727382;83;21188;-61
2021/06/01 04:47:35;;;;;;;4.35;1.30;;;;;;;20.69;47.98;100575.91;1727273;81;21173;-60
2021/06/01 04:54:18;;;;;;;2.98;1.55;;;;;;;21.33;45.62;100563.20;1783941;80;21229;-64
2021/06/01 05:01:01;;;;;;;1.87;1.30;;;;;;;20.61;46.57;100564.89;1782087;80;22055;-59
2021/06/01 05:03:34;;;;;;;5.75;1.57;;;;;;;20.31;46.92;100566.09;1781876;80;21328;-61
2021/06/01 05:10:03;;;;;;;11.73;2.10;;;;;;;20.64;46.19;100573.83;1783393;80;21284;-58
2021/06/01 05:12:39;;;;;;;4.10;1.32;;;;;;;20.67;46.41;100573.95;1783190;80;21308;-59
2021/06/01 05:15:17;;;;;;;4.45;1.30;;;;;;;20.71;45.96;100576.03;1783635;80;21157;-60
2021/06/01 05:17:52;;;;;;;3.70;1.60;;;;;;;20.75;45.73;100554.66;1783228;80;21316;-59
2021/06/01 05:20:27;;;;;;;1.60;1.50;;;;;;;20.78;45.68;100558.77;1783159;80;21538;-60
2021/06/01 05:23:00;;;;;;;5.42;1.60;;;;;;;21.01;45.20;100554.52;1783033;80;21455;-59
2021/06/01 05:29:49;;;;;;;4.22;1.80;;;;;;;21.65;44.11;100550.54;1783519;80;21145;-62
2021/06/01 05:34:59;;;;;;;2.97;2.03;;;;;;;21.72;43.21;100550.55;1784154;80;21300;-67
2021/06/01 05:37:29;;;;;;;2.27;1.37;;;;;;;22.10;42.50;100553.84;1790546;80;21275;-60
2021/06/01 05:40:02;;;;;;;3.52;1.70;;;;;;;22.37;42.48;100557.36;1793906;80;21557;-69
2021/06/01 05:42:37;;;;;;;3.83;1.57;;;;;;;22.49;41.74;100569.05;1793712;80;21496;-61
2021/06/01 05:45:10;;;;;;;;;;;;;;;22.47;41.51;100570.28;1796615;80;21315;-65
2021/06/01 05:47:43;;;;;;;2.35;1.50;;;;;;;22.39;41.97;100569.97;1793869;80;20264;-62
2021/06/01 05:50:16;;;;;;;5.22;1.62;;;;;;;22.13;41.70;100574.78;1793834;80;21919;-61
2021/06/01 05:56:59;;;;;;;4.47;1.60;;;;;;;21.51;43.48;100594.64;1792780;78;21307;-61
2021/06/01 05:59:34;;;;;;;2.17;1.92;;;;;;;20.80;44.63;100581.51;1792874;80;21200;-62
2021/06/01 06:02:07;;;;;;;3.67;1.50;;;;;;;20.49;45.45;100573.61;1793956;80;21185;-61
2021/06/01 06:04:40;;;;;;;;;;;;;;;20.17;46.15;100576.26;1796893;80;21173;-60
2021/06/01 06:07:13;;;;;;;1.75;1.57;;;;;;;19.85;46.76;100566.10;1794059;80;20340;-62
2021/06/01 06:09:48;;;;;;;5.47;1.92;;;;;;;19.53;47.44;100555.95;1794342;80;21280;-62
2021/06/01 06:12:21;;;;;;;3.45;1.70;;;;;;;19.30;48.15;100546.23;1794181;80;21343;-64
2021/06/01 06:14:54;;;;;;;;;;;;;;;19.15;48.55;100543.29;1796683;80;21319;-62
2021/06/01 06:17:46;;;;;;;2.98;1.75;;;;;;;19.01;49.34;100553.41;1794155;80;20742;-61
2021/06/01 06:20:19;;;;;;;6.45;2.20;;;;;;;18.87;49.75;100562.19;1794039;80;21582;-61
2021/06/01 06:22:52;;;;;;;4.50;2.35;;;;;;;18.80;50.15;100568.70;1794199;80;21307;-60
2021/06/01 06:25:26;;;;;;;2.25;1.87;;;;;;;18.76;50.29;100572.73;1794436;80;21307;-62
2021/06/01 06:27:59;;;;;;;3.52;1.92;;;;;;;18.76;50.80;100576.71;1794458;80;21295;-61
2021/06/01 06:30:32;;;;;;;3.47;1.62;;;;;;;18.83;50.93;100575.81;1794446;80;21432;-64
2021/06/01 06:33:11;;;;;;;6.60;2.08;;;;;;;18.94;50.58;100577.17;1772289;80;21423;-62
2021/06/01 06:35:40;;;;;;;2.15;1.70;;;;;;;18.97;50.51;100567.53;1784887;80;21264;-63
2021/06/01 06:38:14;;;;;;;2.80;1.85;;;;;;;18.96;50.12;100568.55;1767992;81;21311;-63
2021/06/01 06:41:04;;;;;;;2.02;1.72;;;;;;;18.94;50.17;100564.44;1768032;81;21169;-63
2021/06/01 06:43:30;;;;;;;;;;;;;;;18.92;50.55;100570.40;1769136;80;22121;-64
2021/06/01 06:46:07;;;;;;;8.48;2.00;;;;;;;18.82;50.77;100564.86;1768043;81;20358;-63
2021/06/01 06:48:38;;;;;;;5.83;1.60;;;;;;;18.77;51.22;100566.44;1767690;81;21203;-67
2021/06/01 06:51:15;;;;;;;8.13;1.80;;;;;;;18.81;51.24;100562.41;1767637;81;21335;-70
2021/06/01 06:56:29;;;;;;;2.33;1.70;;;;;;;19.11;50.74;100549.95;1767324;79;21204;-62
2021/06/01 06:59:03;;;;;;;5.22;1.72;;;;;;;19.24;50.22;100548.31;1767551;81;21403;-64
2021/06/01 07:01:37;;;;;;;3.13;1.70;;;;;;;19.33;49.82;100545.87;1766958;79;21438;-66
2021/06/01 07:04:10;;;;;;;2.62;1.67;;;;;;;19.32;49.73;100544.22;1767742;81;21320;-67
2021/06/01 07:06:48;;;;;;;3.42;2.10;;;;;;;19.34;50.12;100535.59;1768249;81;21224;-62
2021/06/01 07:09:18;;;;;;;2.70;1.72;;;;;;;19.44;50.08;100533.97;1767461;81;21205;-68
2021/06/01 07:11:53;;;;;;;4.97;1.98;;;;;;;19.53;49.52;100536.03;1767044;81;22072;-63
2021/06/01 07:14:30;;;;;;;5.15;1.70;;;;;;;19.54;49.57;100531.02;1767832;81;21930;-64
2021/06/01 07:17:03;;;;;;;1.90;1.60;;;;;;;19.55;49.34;100527.36;1768059;81;21224;-64
2021/06/01 07:19:36;;;;;;;4.80;1.55;;;;;;;19.57;49.49;100530.66;1767731;81;21299;-66
2021/06/01 07:22:11;;;;;;;7.22;1.95;;;;;;;19.57;49.19;100529.32;1767349;81;21495;-64
2021/06/01 07:24:44;;;;;;;5.65;2.00;;;;;;;19.49;49.58;100525.77;1767614;81;21359;-63
2021/06/01 07:27:17;;;;;;;2.40;1.75;;;;;;;19.48;49.69;100518.83;1768138;81;21308;-62
2021/06/01 07:29:51;;;;;;;5.47;1.70;;;;;;;19.45;49.45;100528.98;1767350;81;21288;-62
2021/06/01 07:32:24;;;;;;;3.08;1.50;;;;;;;19.47;49.61;100533.11;1767163;81;22241;-60
2021/06/01 07:34:59;;;;;;;2.17;1.75;;;;;;;19.44;49.84;100529.98;1767469;81;21370;-60
2021/06/01 07:37:32;;;;;;;3.80;1.90;;;;;;;19.38;49.88;100528.92;1767906;81;21308;-59
2021/06/01 07:40:07;;;;;;;4.65;1.50;;;;;;;19.39;50.10;100530.55;1766279;81;21869;-62
2021/06/01 07:42:40;;;;;;;3.30;1.35;;;;;;;19.42;50.40;100534.17;1765730;81;21555;-63
2021/06/01 07:45:14;;;;;;;2.00;1.57;;;;;;;19.43;50.26;100530.52;1765553;81;21320;-68
2021/06/01 07:47:46;;;;;;;;;;;;;;;19.42;50.66;100526.70;1768559;81;21315;-60
2021/06/01 07:50:19;;;;;;;3.08;1.72;;;;;;;19.39;50.68;100533.20;1765503;81;20667;-59
2021/06/01 07:52:52;;;;;;;5.30;1.95;;;;;;;19.27;50.65;100534.66;1765385;81;21209;-58
2021/06/01 07:55:26;;;;;;;3.80;1.60;;;;;;;19.17;50.55;100531.48;1765483;81;21265;-60
2021/06/01 07:57:59;;;;;;;6.12;2.00;;;;;;;19.03;50.98;100524.36;1766263;81;21181;-63
2021/06/01 08:00:32;;;;;;;2.67;2.00;;;;;;;19.00;51.50;100531.85;1765683;80;21204;-62
2021/06/01 08:03:06;;;;;;;2.20;1.52;;;;;;;18.95;51.63;100529.75;1766086;80;21308;-59
2021/06/01 08:05:40;;;;;;;3.58;2.30;;;;;;;18.91;51.76;100524.50;1765834;80;21549;-60
2021/06/01 08:08:13;;;;;;;4.83;2.80;;;;;;;18.90;51.78;100525.99;1765925;81;21204;-60
2021/06/01 08:10:46;;;;;;;9.65;3.52;;;;;;;18.81;52.15;100518.64;1765786;80;21412;-63
2021/06/01 08:13:19;;;;;;;7.35;2.98;;;;;;;18.73;52.25;100522.69;1765354;81;21189;-62
2021/06/01 08:15:54;;;;;;;8.28;3.95;;;;;;;18.66;52.75;100529.73;1756550;81;21205;-61
2021/06/01 08:18:31;;;;;;;11.25;3.12;;;;;;;18.62;52.89;100520.00;1766047;81;21193;-62
2021/06/01 08:21:23;;;;;;;4.58;2.50;;;;;;;18.62;52.94;100517.35;1765113;79;21623;-63
2021/06/01 08:23:50;;;;;;;4.62;2.02;;;;;;;18.62;52.85;100521.83;1765598;80;21531;-60
2021/06/01 08:26:23;;;;;;;4.58;2.00;;;;;;;18.60;53.16;100519.86;1765830;80;21570;-63
2021/06/01 08:29:04;;;;;;;7.60;2.02;;;;;;;18.55;53.57;100519.08;1766180;81;21440;-62
2021/06/01 08:31:37;;;;;;;3.62;1.80;;;;;;;18.52;53.75;100520.77;1765031;81;22140;-60
2021/06/01 08:34:11;;;;;;;2.98;1.77;;;;;;;18.53;54.28;100519.73;1759949;81;21473;-61
2021/06/01 08:36:45;;;;;;;4.33;1.62;;;;;;;18.57;54.97;100522.38;1712663;82;21272;-58
2021/06/01 08:39:24;;;;;;;3.85;2.37;;;;;;;18.57;55.24;100519.72;1714143;83;21316;-60
2021/06/01 08:41:55;;;;;;;2.67;2.00;;;;;;;18.59;55.54;100518.20;1713000;82;21240;-61
2021/06/01 08:44:28;;;;;;;2.50;2.02;;;;;;;18.59;54.91;100516.38;1713228;83;21319;-59
2021/06/01 08:47:05;;;;;;;3.33;1.82;;;;;;;18.55;55.39;100521.73;1712558;83;21184;-60
2021/06/01 08:49:39;;;;;;;5.58;2.10;;;;;;;18.56;55.23;100521.20;1714158;83;21311;-59
2021/06/01 08:52:12;;;;;;;3.15;1.80;;;;;;;18.56;55.47;100514.58;1713303;83;21330;-59
2021/06/01 08:54:45;;;;;;;4.28;1.87;;;;;;;18.51;55.41;100516.98;1713092;83;21193;-59
2021/06/01 08:57:18;;;;;;;2.42;1.45;;;;;;;18.46;55.63;100518.81;1714092;83;21205;-62
2021/06/01 08:59:53;;;;;;;9.65;1.95;;;;;;;18.41;55.61;100518.53;1714153;83;21310;-62
2021/06/01 09:02:27;;;;;;;2.37;1.52;;;;;;;18.38;55.91;100515.40;1713467;83;21212;-61
2021/06/01 09:05:03;;;;;;;3.55;1.20;;;;;;;18.40;55.73;100521.34;1713344;83;21354;-62
2021/06/01 09:07:59;;;;;;;3.15;1.70;;;;;;;18.38;55.55;100523.35;1713022;83;22153;-63
2021/06/01 09:10:50;;;;;;;1.75;1.10;;;;;;;18.32;55.95;100515.61;1714345;83;21204;-60
2021/06/01 09:13:40;;;;;;;;;;;;;;;18.31;55.75;100518.45;1761339;81;22077;-61
2021/06/01 09:21:53;;;;;;;3.52;1.40;;;;;;;18.07;56.42;100522.95;1749204;81;21169;-60
2021/06/01 09:24:27;;;;;;;1.45;1.35;;;;;;;17.97;57.16;100521.53;1752629;79;21161;-60
2021/06/01 09:27:04;;;;;;;2.67;1.42;;;;;;;17.92;57.72;100529.19;1749678;79;21319;-60
2021/06/01 09:33:46;;;;;;;3.05;1.50;;;;;;;17.87;59.29;100523.59;1735956;82;21526;-61
2021/06/01 09:36:24;;;;;;;2.37;1.57;;;;;;;17.84;59.80;100523.44;1685492;82;21295;-63
2021/06/01 09:38:57;;;;;;;1.45;1.35;;;;;;;17.80;60.00;100527.45;1736137;82;21192;-61
2021/06/01 09:41:31;;;;;;;4.53;1.47;;;;;;;17.74;60.37;100520.22;1725430;82;21355;-62
2021/06/01 09:44:07;;;;;;;2.30;1.70;;;;;;;17.75;60.83;100515.73;1733299;82;21296;-61
2021/06/01 09:46:46;;;;;;;2.98;1.57;;;;;;;17.77;61.67;100511.11;1734807;82;22100;-62
2021/06/01 09:49:22;;;;;;;1.92;1.72;;;;;;;17.83;62.11;100507.73;1734553;82;21313;-62
2021/06/01 09:56:05;;;;;;;3.62;2.80;;;;;;;17.89;62.51;100499.90;1734622;82;21194;-65
2021/06/01 09:58:38;;;;;;;11.85;6.12;;;;;;;17.98;63.06;100485.59;1733773;82;21495;-61
2021/06/01 10:04:46;;;;;;;4.05;3.02;;;;;;;18.14;62.79;100478.84;1710393;83;21188;-60
2021/06/01 10:07:28;;;;;;;;;;;;;;;18.20;63.19;100474.63;1779371;80;22002;-61
2021/06/01 10:10:03;;;;;;;7.33;4.50;;;;;;;18.23;63.35;100474.78;1778525;80;20190;-61
2021/06/01 10:12:36;;;;;;;8.88;3.58;;;;;;;18.22;63.46;100463.87;1746170;80;21184;-62
2021/06/01 10:15:10;;;;;;;6.00;3.40;;;;;;;18.23;63.22;100447.78;1711170;83;21339;-61
2021/06/01 10:17:44;;;;;;;10.63;5.62;;;;;;;18.18;62.87;100453.63;1773103;80;21263;-60
2021/06/01 10:20:20;;;;;;;7.72;3.50;;;;;;;18.14;63.17;100456.33;1748587;80;21315;-61
2021/06/01 10:22:55;;;;;;;6.87;3.75;;;;;;;18.06;62.65;100444.47;1780126;80;21323;-60
2021/06/01 10:25:31;;;;;;;3.45;3.05;;;;;;;17.96;63.64;100443.09;1711864;83;22191;-60
2021/06/01 10:28:08;;;;;;;5.35;2.80;;;;;;;17.89;63.64;100436.33;1776740;80;22084;-62
2021/06/01 10:30:42;;;;;;;3.67;2.58;;;;;;;17.84;63.57;100436.56;1778448;80;21324;-61
2021/06/01 10:33:18;;;;;;;3.17;2.47;;;;;;;17.79;64.29;100441.05;1711266;83;21216;-60
2021/06/01 10:42:30;;;;;;;5.30;2.80;;;;;;;17.81;64.09;100439.07;1777272;80;21315;-59
2021/06/01 10:42:31;;;;;;;5.28;2.83;;;;;;;18.03;63.07;100430.25;1711787;83;21404;-60
2021/06/01 10:53:21;;;;;;;4.03;2.30;;;;;;;18.23;63.01;100417.80;1776752;80;21392;-60
2021/06/01 10:56:05;;;;;;;3.42;2.40;;;;;;;18.18;62.88;100417.85;1752563;79;22115;-60
2021/06/01 10:58:44;;;;;;;2.12;1.87;;;;;;;18.09;61.91;100426.89;1808221;79;21986;-60
2021/06/01 11:04:24;;;;;;;2.25;2.00;;;;;;;17.92;62.06;100435.16;1770414;80;21217;-61
2021/06/01 11:07:13;;;;;;;5.25;2.12;;;;;;;17.76;61.65;100421.56;1763081;81;21308;-67
2021/06/01 11:09:47;;;;;;;7.05;2.47;;;;;;;17.69;62.10;100423.77;1798587;79;21343;-63
2021/06/01 11:12:33;;;;;;;3.70;2.30;;;;;;;17.58;62.82;100432.94;1763929;81;21284;-62
2021/06/01 11:14:59;;;;;;;2.80;2.25;;;;;;;17.50;62.23;100421.88;1798826;79;21389;-60
2021/06/01 11:17:36;;;;;;;3.55;2.45;;;;;;;17.45;62.29;100416.80;1798460;79;21884;-61
2021/06/01 11:20:28;;;;;;;3.02;2.30;;;;;;;17.39;62.45;100422.78;1799572;79;21311;-63
2021/06/01 11:23:20;;;;;;;5.30;2.40;;;;;;;17.34;62.59;100421.16;1797713;79;21212;-63
2021/06/01 11:34:14;;;;;;;3.00;1.80;;;;;;;17.33;63.21;100408.95;1761806;81;21887;-63
2021/06/01 11:36:47;;;;;;;5.87;2.10;;;;;;;17.41;62.31;100416.84;1752473;81;21340;-65
2021/06/01 11:39:50;;;;;;;2.92;2.20;;;;;;;17.41;62.31;100416.84;1763528;81;21872;-62
2021/06/01 11:45:05;;;;;;;2.33;1.75;;;;;;;17.47;61.42;100428.03;1763016;81;21198;-67
2021/06/01 11:48:07;;;;;;;3.10;1.95;;;;;;;17.49;61.33;100426.03;1798213;79;21177;-63
2021/06/01 11:53:22;;;;;;;2.35;1.62;;;;;;;17.42;60.89;100420.63;1799829;79;21307;-62
2021/06/01 11:56:02;;;;;;;3.02;1.72;;;;;;;17.42;60.92;100422.44;1762585;81;21182;-64
2021/06/01 12:04:15;;;;;;;4.92;1.77;;;;;;;17.38;60.65;100427.28;1683594;85;21741;-62
2021/06/01 12:12:55;;;;;;;3.80;1.40;;;;;;;17.43;61.04;100431.52;1771489;81;21346;-66
2021/06/01 12:21:36;;;;;;;1.50;1.40;;;;;;;17.18;61.77;100437.14;1772189;81;21572;-63
2021/06/01 12:24:37;;;;;;;3.42;1.50;;;;;;;17.07;61.89;100438.38;1745269;81;21219;-66
2021/06/01 12:27:28;;;;;;;1.82;1.40;;;;;;;16.99;62.40;100433.11;1747278;81;21310;-63
2021/06/01 12:33:29;;;;;;;1.57;1.47;;;;;;;16.82;62.75;100435.01;1710864;83;21323;-68
2021/06/01 12:37:01;;;;;;;2.62;1.50;;;;;;;16.73;62.92;100440.01;1738638;82;21200;-64
2021/06/01 12:41:45;;;;;;;3.47;1.47;;;;;;;16.61;63.55;100441.37;1710671;83;22049;-66
2021/06/01 12:44:15;;;;;;;3.10;1.50;;;;;;;16.58;63.59;100443.52;1739376;82;21184;-65
2021/06/01 13:12:09;;;;;;;1.90;1.25;;;;;;;16.67;64.56;100408.95;1772954;80;21178;-60
2021/06/01 13:19:47;;;;;;;3.35;1.47;;;;;;;16.48;64.64;100411.16;1774841;80;21532;-64
2021/06/01 13:22:40;;;;;;;5.00;1.37;;;;;;;16.45;65.10;100414.97;1774263;80;21308;-63
2021/06/01 13:36:56;;;;;;;1.82;1.10;;;;;;;16.46;65.62;100389.34;1773814;80;21495;-66
2021/06/01 14:02:40;;;;;;;2.27;1.50;;;;;;;15.99;66.68;100384.86;1809671;79;21982;-62
2021/06/01 14:21:23;;;;;;;2.30;1.30;;;;;;;15.59;68.34;100385.38;1741815;82;22192;-64
2021/06/01 14:39:19;;;;;;;2.35;1.37;;;;;;;15.33;70.70;100399.48;1740835;82;21370;-65
2021/06/01 14:56:03;;;;;;;1.62;1.50;;;;;;;15.40;71.38;100401.80;1742006;82;21330;-62
2021/06/01 15:09:48;;;;;;;2.80;1.85;;;;;;;15.40;71.83;100409.72;1735964;80;22079;-64
2021/06/01 15:54:32;;;;;;;2.92;1.70;;;;;;;15.27;71.91;100435.77;1743317;82;21946;-63
2021/06/01 16:22:50;;;;;;;4.17;1.80;;;;;;;15.06;72.07;100424.84;1657384;81;21562;-62
2021/06/01 17:05:48;;;;;;;7.80;1.92;;;;;;;14.96;73.33;100441.27;1669512;86;21811;-63
2021/06/01 17:11:17;;;;;;;3.37;2.00;;;;;;;14.91;73.58;100450.63;1668725;86;21292;-62
2021/06/01 17:13:58;;;;;;;3.77;2.10;;;;;;;14.87;73.87;100445.36;1668311;85;21197;-63
2021/06/01 17:19:53;;;;;;;2.25;2.05;;;;;;;14.84;74.20;100449.13;1668582;86;21248;-62
2021/06/01 17:36:17;;;;;;;3.17;2.50;;;;;;;14.69;75.98;100462.08;1618164;87;21276;-62
2021/06/01 17:38:53;;;;;;;3.02;2.50;;;;;;;14.69;76.10;100469.15;1621709;87;21315;-62
2021/06/01 17:41:31;;;;;;;3.27;2.47;;;;;;;14.71;76.28;100474.59;1640971;87;21312;-62
2021/06/01 17:44:07;;;;;;;3.72;2.52;;;;;;;14.77;76.36;100475.79;1639716;87;21190;-62
2021/06/01 17:46:45;;;;;;;4.87;2.65;;;;;;;14.80;76.56;100465.77;1630293;86;21310;-61
2021/06/01 17:49:26;;;;;;;8.58;2.87;;;;;;;14.82;76.59;100465.60;1644025;86;21176;-61
2021/06/01 17:52:02;;;;;;;7.08;2.85;;;;;;;14.80;76.79;100454.40;1702550;84;21810;-59
2021/06/01 17:54:39;;;;;;;3.62;2.87;;;;;;;14.74;77.16;100449.25;1703789;84;21268;-60